Time;durP1;ratioP1;P1;durP2;ratioP2;P2;SDS_P1;SDS_P2;PMS_P1;PMS_P2;Temp;Humidity;BMP_temperature;BMP_pressure;BME280_temperature;BME280_humidity;BME280_pressure;Samples;Min_cycle;Max_cycle;Signal;HPM_P1;HPM_P2
2022/01/26 00:07:55;;;;;;;9.13;8.25;;;3.70;99.90;;;;;;5075082;28;20709;-77
2022/01/26 00:10:23;;;;;;;0.60;0.50;;;3.70;99.90;;;;;;5074442;28;20194;-78
2022/01/26 00:12:50;;;;;;;1.45;1.40;;;3.60;99.90;;;;;;5074838;28;20218;-78
2022/01/26 00:15:17;;;;;;;5.75;4.45;;;3.60;99.90;;;;;;5074742;28;20194;-78
2022/01/26 00:17:44;;;;;;;23.67;5.88;;;3.60;99.90;;;;;;5074497;28;20228;-78
2022/01/26 00:20:18;;;;;;;0.60;0.60;;;3.50;99.90;;;;;;5074108;28;20245;-78
2022/01/26 00:22:59;;;;;;;1.02;1.02;;;3.50;99.90;;;;;;5074515;28;20624;-78
2022/01/26 00:25:39;;;;;;;0.68;0.68;;;3.50;99.90;;;;;;5074450;28;20247;-78
2022/01/26 00:28:31;;;;;;;0.60;0.60;;;3.50;99.90;;;;;;5074435;28;20218;-78
2022/01/26 00:39:09;;;;;;;4.60;3.22;;;3.60;99.90;;;;;;5031129;28;20194;-78
2022/01/26 00:41:39;;;;;;;4.53;4.30;;;3.60;99.90;;;;;;5031900;28;20294;-78
2022/01/26 00:44:07;;;;;;;0.50;0.43;;;3.60;99.90;;;;;;5031554;28;20199;-78
2022/01/26 00:46:36;;;;;;;5.55;3.15;;;3.60;99.90;;;;;;5031933;28;20353;-78
2022/01/26 00:49:03;;;;;;;6.18;5.68;;;3.60;99.90;;;;;;5051051;28;20628;-78
2022/01/26 00:51:30;;;;;;;0.50;0.40;;;3.60;99.90;;;;;;5074081;28;20571;-78
2022/01/26 00:54:02;;;;;;;0.50;0.43;;;3.60;99.90;;;;;;5074129;28;20664;-78
2022/01/26 00:56:29;;;;;;;0.60;0.60;;;3.60;99.90;;;;;;5074334;28;20218;-78
2022/01/26 00:58:57;;;;;;;0.50;0.40;;;3.60;99.90;;;;;;5073096;28;20209;-77
2022/01/26 01:01:24;;;;;;;3.03;2.78;;;3.60;99.90;;;;;;5074091;28;20198;-78
2022/01/26 01:03:51;;;;;;;3.05;2.83;;;3.60;99.90;;;;;;5074302;28;20213;-78
2022/01/26 01:06:23;;;;;;;0.60;0.60;;;3.60;99.90;;;;;;5073518;28;20214;-78
2022/01/26 01:08:50;;;;;;;0.50;0.40;;;3.50;99.90;;;;;;5073689;28;20216;-77
2022/01/26 01:11:17;;;;;;;4.63;3.15;;;3.60;99.90;;;;;;5072983;28;20682;-78
2022/01/26 01:13:45;;;;;;;3.42;3.22;;;3.50;99.90;;;;;;5073711;28;20190;-78
2022/01/26 01:16:19;;;;;;;0.50;0.40;;;3.50;99.90;;;;;;5073640;28;20737;-78
2022/01/26 01:18:53;;;;;;;1.58;1.48;;;3.60;99.90;;;;;;5073701;28;20594;-77
2022/01/26 01:27:04;;;;;;;2.08;1.98;;;3.60;99.90;;;;;;5073102;28;20229;-78
2022/01/26 01:29:37;;;;;;;0.50;0.40;;;3.50;99.90;;;;;;5072686;28;20194;-78
2022/01/26 01:32:12;;;;;;;3.35;2.28;;;3.50;99.90;;;;;;5073781;28;20201;-77
2022/01/26 01:34:40;;;;;;;2.35;1.80;;;3.50;99.90;;;;;;5073258;28;20602;-78
2022/01/26 01:37:08;;;;;;;1.95;1.85;;;3.50;99.90;;;;;;5073078;28;20227;-78
2022/01/26 01:39:36;;;;;;;0.50;0.40;;;3.50;99.90;;;;;;5072968;28;20263;-77
2022/01/26 01:42:05;;;;;;;1.92;1.83;;;3.50;99.90;;;;;;5073521;28;20193;-78
2022/01/26 01:44:32;;;;;;;6.28;1.83;;;3.50;99.90;;;;;;5072679;28;20197;-78
2022/01/26 01:46:58;;;;;;;0.50;0.40;;;3.50;99.90;;;;;;5073845;28;20217;-78
2022/01/26 01:49:27;;;;;;;3.50;3.25;;;3.50;99.90;;;;;;5072831;28;20201;-78
2022/01/26 01:51:57;;;;;;;0.50;0.40;;;3.50;99.90;;;;;;5073284;28;20213;-78
2022/01/26 01:54:25;;;;;;;1.35;0.95;;;3.50;99.90;;;;;;5074045;28;20608;-78
2022/01/26 01:56:56;;;;;;;3.20;3.00;;;3.60;99.90;;;;;;5073398;28;20210;-79
2022/01/26 01:59:23;;;;;;;0.50;0.40;;;3.60;99.90;;;;;;5072713;28;20296;-79
2022/01/26 02:01:50;;;;;;;7.22;4.90;;;3.50;99.90;;;;;;5072667;28;20560;-77
2022/01/26 02:04:17;;;;;;;0.77;0.77;;;3.50;99.90;;;;;;5073530;28;20195;-78
2022/01/26 02:06:45;;;;;;;0.50;0.50;;;3.40;99.90;;;;;;5072760;28;20221;-78
2022/01/26 02:09:12;;;;;;;0.50;0.40;;;3.40;99.90;;;;;;5079342;28;20200;-78
2022/01/26 02:11:48;;;;;;;11.02;3.58;;;3.40;99.90;;;;;;5072038;28;20202;-78
2022/01/26 02:14:22;;;;;;;2.85;2.70;;;3.40;99.90;;;;;;5073130;28;20277;-78
2022/01/26 02:16:55;;;;;;;0.50;0.40;;;3.40;99.90;;;;;;5072503;28;20214;-78
2022/01/26 02:19:53;;;;;;;0.60;0.50;;;3.40;99.90;;;;;;5072312;28;20204;-79
2022/01/26 02:50:11;;;;;;;9.80;8.82;;;3.30;99.90;;;;;;5071849;28;20254;-78
2022/01/26 02:52:52;;;;;;;1.17;1.17;;;3.30;99.90;;;;;;5072238;28;20277;-78
2022/01/26 02:55:35;;;;;;;3.33;3.13;;;3.30;99.90;;;;;;5071679;28;20216;-78
2022/01/26 02:58:33;;;;;;;8.43;5.93;;;3.30;99.90;;;;;;5071862;28;20224;-78
2022/01/26 03:01:09;;;;;;;3.47;2.25;;;3.30;99.90;;;;;;5071539;28;20221;-78
2022/01/26 03:03:40;;;;;;;3.67;3.55;;;3.30;99.90;;;;;;5072246;28;20201;-78
2022/01/26 03:06:11;;;;;;;2.25;2.03;;;3.30;99.90;;;;;;5071013;28;20225;-78
2022/01/26 03:08:42;;;;;;;2.35;2.25;;;3.30;99.90;;;;;;5072268;28;20385;-78
2022/01/26 03:11:12;;;;;;;4.82;4.20;;;3.30;99.90;;;;;;5071693;28;20696;-78
2022/01/26 03:13:44;;;;;;;10.43;2.75;;;3.30;99.90;;;;;;5071698;28;20194;-78
2022/01/26 03:16:15;;;;;;;2.25;2.15;;;3.30;99.90;;;;;;5071865;28;20650;-78
2022/01/26 03:18:57;;;;;;;13.32;12.13;;;3.30;99.90;;;;;;5071215;28;20247;-78
2022/01/26 03:21:32;;;;;;;2.42;2.22;;;3.20;99.90;;;;;;5072104;28;20595;-77
2022/01/26 03:29:43;;;;;;;5.05;4.60;;;3.00;99.90;;;;;;5071075;28;20185;-78
2022/01/26 03:34:56;;;;;;;4.25;2.95;;;2.90;99.90;;;;;;5064140;28;20289;-78
2022/01/26 03:37:27;;;;;;;7.50;5.32;;;2.80;99.90;;;;;;5071602;28;20221;-78
2022/01/26 03:39:54;;;;;;;3.45;3.35;;;2.80;99.90;;;;;;5071154;28;20666;-78
2022/01/26 03:42:22;;;;;;;8.18;7.38;;;2.80;99.90;;;;;;5070955;28;20659;-78
2022/01/26 03:44:49;;;;;;;3.63;1.60;;;2.80;99.90;;;;;;5071267;28;20193;-78
2022/01/26 03:47:15;;;;;;;6.38;5.93;;;2.90;99.90;;;;;;5071575;28;20214;-78
2022/01/26 03:49:42;;;;;;;3.85;3.65;;;2.90;99.90;;;;;;5071393;28;20189;-78
2022/01/26 03:52:10;;;;;;;5.75;3.75;;;3.00;99.90;;;;;;5071475;28;20197;-78
2022/01/26 03:54:37;;;;;;;27.25;9.90;;;2.90;99.90;;;;;;5071370;28;20194;-78
2022/01/26 03:57:04;;;;;;;27.00;11.50;;;2.90;99.90;;;;;;5071324;28;20225;-77
2022/01/26 03:59:33;;;;;;;12.02;6.55;;;2.90;99.90;;;;;;5071007;28;20581;-78
2022/01/26 04:01:59;;;;;;;1.02;1.02;;;2.90;99.90;;;;;;5071315;28;20223;-77
2022/01/26 04:04:28;;;;;;;4.55;4.20;;;2.80;99.90;;;;;;5070979;28;20225;-79
2022/01/26 04:06:58;;;;;;;8.13;3.50;;;2.80;99.90;;;;;;5071410;28;20214;-77
2022/01/26 04:09:25;;;;;;;29.80;8.55;;;2.90;99.90;;;;;;5074846;28;20198;-77
2022/01/26 04:11:52;;;;;;;2.50;2.22;;;2.90;99.90;;;;;;5074953;28;20285;-78
2022/01/26 04:14:24;;;;;;;6.90;6.35;;;2.90;99.90;;;;;;5075060;28;20193;-77
2022/01/26 04:16:52;;;;;;;2.05;1.95;;;2.90;99.90;;;;;;5074719;28;20567;-77
2022/01/26 04:19:20;;;;;;;12.05;4.78;;;2.90;99.90;;;;;;5074547;28;20205;-77
2022/01/26 04:21:58;;;;;;;0.73;0.73;;;3.00;99.90;;;;;;5074567;28;20330;-78
2022/01/26 04:24:30;;;;;;;11.35;5.88;;;3.00;99.90;;;;;;5075335;28;20221;-79
2022/01/26 04:27:01;;;;;;;3.55;3.22;;;3.00;99.90;;;;;;5074582;28;20214;-78
2022/01/26 04:29:30;;;;;;;19.15;7.55;;;3.10;99.90;;;;;;5074614;28;20200;-78
2022/01/26 04:31:59;;;;;;;1.77;1.48;;;3.10;99.90;;;;;;5075034;28;20209;-78
2022/01/26 04:34:27;;;;;;;0.50;0.40;;;3.10;99.90;;;;;;5074718;28;20198;-78
2022/01/26 04:36:58;;;;;;;16.38;10.02;;;3.10;99.90;;;;;;5074762;28;20229;-77
2022/01/26 04:39:30;;;;;;;2.92;2.75;;;3.10;99.90;;;;;;5074904;28;20232;-78
2022/01/26 04:42:00;;;;;;;7.18;4.38;;;3.00;99.90;;;;;;5074584;28;20174;-78
2022/01/26 04:44:32;;;;;;;20.70;13.60;;;3.00;99.90;;;;;;5074404;28;20225;-77
2022/01/26 04:47:01;;;;;;;2.55;1.55;;;3.10;99.90;;;;;;5074845;28;20306;-78
2022/01/26 04:49:27;;;;;;;1.80;1.70;;;3.00;99.90;;;;;;5074606;28;20509;-77
2022/01/26 04:51:54;;;;;;;10.70;9.65;;;3.00;99.90;;;;;;5074302;28;20721;-77
2022/01/26 04:54:21;;;;;;;2.15;2.05;;;3.00;99.90;;;;;;5074566;28;20186;-78
2022/01/26 04:56:48;;;;;;;28.92;17.40;;;3.00;99.90;;;;;;5073950;28;20218;-78
2022/01/26 04:59:15;;;;;;;1.88;1.77;;;3.00;99.90;;;;;;5073661;28;20209;-78
2022/01/26 05:01:41;;;;;;;0.57;0.50;;;3.00;99.90;;;;;;5073576;28;20190;-78
2022/01/26 05:04:09;;;;;;;2.78;2.05;;;3.00;99.90;;;;;;5074033;28;20217;-78
2022/01/26 05:06:36;;;;;;;4.50;2.15;;;3.00;99.90;;;;;;5073580;28;20214;-78
2022/01/26 05:09:03;;;;;;;46.97;43.42;;;3.10;99.90;;;;;;5073978;28;20194;-78
2022/01/26 05:11:35;;;;;;;1.10;1.10;;;3.10;99.90;;;;;;5073990;28;20194;-78
2022/01/26 05:14:02;;;;;;;24.02;10.10;;;3.10;99.90;;;;;;5073750;28;20175;-78
2022/01/26 05:16:29;;;;;;;1.20;1.20;;;3.10;99.90;;;;;;5074071;28;20225;-78
2022/01/26 05:18:57;;;;;;;2.75;1.48;;;3.20;99.90;;;;;;5073435;28;20204;-76
2022/01/26 05:21:27;;;;;;;20.33;6.28;;;3.10;99.90;;;;;;5074127;28;20280;-77
2022/01/26 05:23:54;;;;;;;0.80;0.80;;;3.10;99.90;;;;;;5073507;28;20241;-78
2022/01/26 05:26:21;;;;;;;2.88;2.67;;;3.10;99.90;;;;;;5074125;28;20225;-78
2022/01/26 05:28:48;;;;;;;1.85;1.75;;;3.10;99.90;;;;;;5073970;28;20198;-77
2022/01/26 05:31:15;;;;;;;0.50;0.40;;;3.10;99.90;;;;;;5073869;28;20209;-78
2022/01/26 05:33:43;;;;;;;12.38;6.93;;;3.10;99.90;;;;;;5074015;28;20213;-78
2022/01/26 05:36:10;;;;;;;1.23;0.90;;;3.10;99.90;;;;;;5074350;28;20204;-78
2022/01/26 05:38:39;;;;;;;1.13;1.13;;;3.10;99.90;;;;;;5073672;28;20202;-78
2022/01/26 05:41:06;;;;;;;3.72;2.53;;;3.10;99.90;;;;;;5073745;28;20849;-78
2022/01/26 05:43:33;;;;;;;2.60;2.45;;;3.10;99.90;;;;;;5075178;28;20241;-77
2022/01/26 05:46:05;;;;;;;6.47;2.45;;;3.10;99.90;;;;;;5073321;28;20273;-78
2022/01/26 05:48:33;;;;;;;12.90;4.45;;;3.10;99.90;;;;;;5074001;28;20722;-78
2022/01/26 05:51:06;;;;;;;9.07;4.72;;;3.10;99.90;;;;;;5076070;28;20276;-76
2022/01/26 05:53:33;;;;;;;1.05;1.05;;;3.10;99.90;;;;;;5074670;28;20787;-78
2022/01/26 05:56:01;;;;;;;3.60;3.40;;;3.10;99.90;;;;;;5074540;28;20221;-78
2022/01/26 05:58:28;;;;;;;4.85;2.63;;;3.00;99.90;;;;;;5074336;28;20194;-78
2022/01/26 06:00:57;;;;;;;0.82;0.82;;;3.10;99.90;;;;;;5073717;28;20194;-78
2022/01/26 06:03:24;;;;;;;5.90;5.40;;;3.10;99.90;;;;;;5073676;28;20209;-78
2022/01/26 06:05:50;;;;;;;15.70;14.13;;;3.10;99.90;;;;;;5071866;28;20279;-78
2022/01/26 06:08:17;;;;;;;8.77;5.15;;;3.10;99.90;;;;;;5072477;28;20204;-77
2022/01/26 06:10:44;;;;;;;2.80;2.60;;;3.00;99.90;;;;;;5071817;28;20198;-77
2022/01/26 06:13:12;;;;;;;3.35;1.58;;;3.00;99.90;;;;;;5072278;28;20194;-78
2022/01/26 06:15:39;;;;;;;0.50;0.50;;;3.00;99.90;;;;;;5071815;28;20221;-77
2022/01/26 06:18:05;;;;;;;18.40;6.05;;;3.00;99.90;;;;;;5071245;28;20225;-77
2022/01/26 06:20:32;;;;;;;0.50;0.50;;;3.00;99.90;;;;;;5071534;28;20194;-77
2022/01/26 06:22:59;;;;;;;0.50;0.50;;;3.00;99.90;;;;;;5072026;28;20194;-78
2022/01/26 06:25:27;;;;;;;2.45;2.35;;;3.00;99.90;;;;;;5071977;28;20214;-77
2022/01/26 06:27:56;;;;;;;2.78;2.67;;;3.00;99.90;;;;;;5071753;28;20217;-74
2022/01/26 06:30:25;;;;;;;6.15;4.90;;;3.00;99.90;;;;;;5070768;28;20204;-78
2022/01/26 06:32:53;;;;;;;0.50;0.50;;;3.00;99.90;;;;;;5071699;28;20190;-77
2022/01/26 06:35:20;;;;;;;3.10;2.70;;;3.00;99.90;;;;;;5073099;28;20190;-78
2022/01/26 06:37:47;;;;;;;0.50;0.40;;;3.00;99.90;;;;;;5072246;28;20213;-78
2022/01/26 06:40:14;;;;;;;6.82;5.32;;;3.00;99.90;;;;;;5071517;28;20622;-77
2022/01/26 06:42:51;;;;;;;3.97;2.45;;;3.00;99.90;;;;;;5072299;28;20198;-78
2022/01/26 06:45:21;;;;;;;3.55;1.80;;;2.90;99.90;;;;;;5071817;28;20205;-77
2022/01/26 06:48:00;;;;;;;4.30;4.00;;;2.90;99.90;;;;;;5072398;28;20225;-78
2022/01/26 06:50:28;;;;;;;10.63;4.90;;;2.90;99.90;;;;;;5071522;28;20205;-78
2022/01/26 06:52:54;;;;;;;1.50;1.40;;;3.00;99.90;;;;;;5071380;28;20201;-77
2022/01/26 06:55:21;;;;;;;1.52;1.52;;;2.90;99.90;;;;;;5074749;28;20194;-77
2022/01/26 06:57:48;;;;;;;11.38;2.65;;;2.90;99.90;;;;;;5072794;28;20235;-79
2022/01/26 07:00:16;;;;;;;24.85;23.27;;;3.00;99.90;;;;;;5072185;28;20201;-79
2022/01/26 07:02:43;;;;;;;4.93;4.35;;;3.00;99.90;;;;;;5071201;28;20600;-79
2022/01/26 07:05:13;;;;;;;26.95;4.65;;;2.90;99.90;;;;;;5071404;28;20214;-79
2022/01/26 07:07:41;;;;;;;0.60;0.50;;;3.00;99.90;;;;;;5070558;28;20213;-79
2022/01/26 07:10:09;;;;;;;1.95;1.80;;;2.90;99.90;;;;;;5072778;28;20216;-78
2022/01/26 07:12:36;;;;;;;16.95;10.10;;;2.90;99.90;;;;;;5073486;28;20273;-78
2022/01/26 07:21:21;;;;;;;2.67;2.47;;;2.80;99.90;;;;;;5073198;28;20185;-80
2022/01/26 07:23:36;;;;;;;9.20;7.82;;;2.80;99.90;;;;;;5072322;28;20276;-77
2022/01/26 07:26:04;;;;;;;1.92;1.77;;;2.80;99.90;;;;;;5072571;28;20206;-77
2022/01/26 07:28:35;;;;;;;8.60;5.97;;;2.80;99.90;;;;;;5074265;28;20310;-78
2022/01/26 07:31:02;;;;;;;18.20;9.05;;;2.80;99.90;;;;;;5072115;28;20186;-77
2022/01/26 07:33:28;;;;;;;43.47;9.98;;;2.80;99.90;;;;;;5072498;28;20198;-78
2022/01/26 07:35:57;;;;;;;18.13;6.88;;;2.80;99.90;;;;;;5072473;28;20193;-79
2022/01/26 07:38:25;;;;;;;26.48;13.68;;;2.80;99.90;;;;;;5072500;28;20574;-78
2022/01/26 07:40:52;;;;;;;3.20;2.95;;;2.80;99.90;;;;;;5071923;28;20667;-78
2022/01/26 07:43:18;;;;;;;48.65;12.70;;;2.80;99.90;;;;;;5076373;28;20194;-79
2022/01/26 07:45:45;;;;;;;11.45;7.20;;;2.80;99.90;;;;;;5075386;28;20740;-78
2022/01/26 07:48:12;;;;;;;25.13;4.50;;;2.80;99.90;;;;;;5075411;28;20218;-78
2022/01/26 07:50:39;;;;;;;14.93;3.45;;;2.70;99.90;;;;;;5075758;28;20578;-78
2022/01/26 07:53:13;;;;;;;4.68;4.38;;;2.70;99.90;;;;;;5075862;28;20211;-78
2022/01/26 07:55:40;;;;;;;15.70;8.13;;;2.70;99.90;;;;;;5067516;28;20211;-78
2022/01/26 07:58:08;;;;;;;26.65;13.93;;;2.70;99.90;;;;;;5076275;28;20579;-77
2022/01/26 08:00:35;;;;;;;6.38;4.55;;;2.70;99.90;;;;;;5075345;28;20202;-76
2022/01/26 08:03:02;;;;;;;15.55;6.05;;;2.60;99.90;;;;;;5076321;28;20200;-77
2022/01/26 08:05:29;;;;;;;19.08;11.50;;;2.70;99.90;;;;;;5075408;28;20217;-77
2022/01/26 08:07:56;;;;;;;11.15;6.72;;;2.70;99.90;;;;;;5075482;28;20229;-74
2022/01/26 08:10:24;;;;;;;25.85;10.88;;;2.70;99.90;;;;;;5075190;28;20263;-78
2022/01/26 08:12:51;;;;;;;4.60;4.28;;;2.70;99.90;;;;;;5074527;28;20247;-78
2022/01/26 08:15:18;;;;;;;8.02;1.40;;;2.70;99.90;;;;;;5074910;28;20198;-77
2022/01/26 08:17:45;;;;;;;9.02;5.90;;;2.70;99.90;;;;;;5073797;28;20214;-78
2022/01/26 08:20:12;;;;;;;6.57;5.90;;;2.70;99.90;;;;;;5074014;28;20216;-78
2022/01/26 08:22:39;;;;;;;15.18;7.70;;;2.80;99.90;;;;;;5072476;28;20198;-78
2022/01/26 08:25:07;;;;;;;9.88;5.35;;;2.80;99.90;;;;;;5054906;28;20264;-76
2022/01/26 08:27:40;;;;;;;7.75;5.18;;;2.80;99.90;;;;;;5053973;28;20731;-78
2022/01/26 08:30:10;;;;;;;35.88;12.75;;;2.80;99.90;;;;;;5055879;28;20291;-77
2022/01/26 08:32:37;;;;;;;31.33;8.80;;;2.80;99.90;;;;;;5053741;28;20198;-76
2022/01/26 08:35:04;;;;;;;37.45;8.93;;;2.80;99.90;;;;;;5054032;28;20551;-77
2022/01/26 08:37:31;;;;;;;22.83;5.97;;;2.80;99.90;;;;;;5053937;28;20221;-78
2022/01/26 08:39:58;;;;;;;19.95;16.00;;;2.80;99.90;;;;;;5053945;28;20205;-77
2022/01/26 08:42:24;;;;;;;1.98;1.88;;;2.80;99.90;;;;;;5053839;28;20198;-76
2022/01/26 08:44:53;;;;;;;4.32;2.58;;;2.70;99.90;;;;;;5053732;28;20218;-77
2022/01/26 08:47:20;;;;;;;41.05;7.25;;;2.70;99.90;;;;;;5053924;28;20226;-76
2022/01/26 08:49:47;;;;;;;8.23;6.82;;;2.80;99.90;;;;;;5053560;28;20545;-77
2022/01/26 08:52:13;;;;;;;6.35;5.95;;;2.80;99.90;;;;;;5057009;28;20209;-78
2022/01/26 08:54:40;;;;;;;19.05;12.15;;;2.70;99.90;;;;;;5054747;28;20202;-77
2022/01/26 08:57:07;;;;;;;31.40;13.55;;;2.80;99.90;;;;;;5055659;28;20222;-77
2022/01/26 08:59:34;;;;;;;2.83;2.58;;;2.80;99.90;;;;;;5053287;28;20206;-77
2022/01/26 09:02:02;;;;;;;15.60;5.68;;;2.70;99.90;;;;;;5054205;28;20194;-76
2022/01/26 09:04:28;;;;;;;34.65;17.20;;;2.70;99.90;;;;;;5058453;28;20206;-78
2022/01/26 09:06:58;;;;;;;6.82;3.50;;;2.70;99.90;;;;;;5066064;28;20228;-74
2022/01/26 09:09:27;;;;;;;2.45;2.35;;;2.70;99.90;;;;;;5074384;28;20224;-78
2022/01/26 09:11:55;;;;;;;16.52;5.63;;;2.70;99.90;;;;;;5074241;28;20204;-78
2022/01/26 09:14:26;;;;;;;14.70;10.35;;;2.70;99.90;;;;;;5075569;28;20206;-78
2022/01/26 09:16:54;;;;;;;3.55;2.58;;;2.70;99.90;;;;;;5074090;28;20305;-78
2022/01/26 09:19:28;;;;;;;13.57;7.80;;;2.70;99.90;;;;;;5074840;28;20293;-78
2022/01/26 09:21:56;;;;;;;8.25;5.60;;;2.70;99.90;;;;;;5068509;28;20200;-78
2022/01/26 09:24:25;;;;;;;10.40;6.55;;;2.70;99.90;;;;;;5056079;28;20218;-78
2022/01/26 09:26:52;;;;;;;15.23;5.82;;;2.70;99.90;;;;;;5063962;28;20222;-79
2022/01/26 09:29:18;;;;;;;36.65;14.07;;;2.80;99.90;;;;;;5077666;28;20674;-78
2022/01/26 09:31:47;;;;;;;7.90;6.70;;;2.70;99.90;;;;;;5079923;28;20201;-79
2022/01/26 09:34:15;;;;;;;6.07;2.58;;;2.70;99.90;;;;;;5078952;28;20212;-79
2022/01/26 09:36:44;;;;;;;20.60;9.68;;;2.70;99.90;;;;;;5079021;28;20222;-79
2022/01/26 09:39:10;;;;;;;17.92;7.95;;;2.80;99.90;;;;;;5077648;28;20194;-79
2022/01/26 09:41:38;;;;;;;2.30;2.20;;;2.80;99.90;;;;;;5078883;28;20225;-79
2022/01/26 09:44:17;;;;;;;3.67;3.47;;;2.80;99.90;;;;;;5078308;28;20211;-78
2022/01/26 09:46:45;;;;;;;7.22;5.75;;;2.80;99.90;;;;;;5073117;28;20217;-79
2022/01/26 09:49:15;;;;;;;8.80;7.70;;;2.90;99.90;;;;;;5052072;28;20715;-78
2022/01/26 09:51:48;;;;;;;1.67;1.58;;;2.80;99.90;;;;;;5054102;28;20206;-78
2022/01/26 09:54:17;;;;;;;9.15;8.25;;;2.80;99.90;;;;;;5055519;28;20199;-77
2022/01/26 09:56:46;;;;;;;15.15;4.97;;;2.90;99.90;;;;;;5056028;28;20214;-78
2022/01/26 09:59:13;;;;;;;32.97;15.13;;;2.90;99.90;;;;;;5054022;28;20213;-77
2022/01/26 10:01:41;;;;;;;6.13;5.68;;;2.90;99.90;;;;;;5055188;28;20198;-77
2022/01/26 10:04:19;;;;;;;43.60;17.08;;;2.80;99.90;;;;;;5053858;28;20687;-77
2022/01/26 10:06:49;;;;;;;6.57;5.95;;;2.70;99.90;;;;;;5053402;28;20210;-78
2022/01/26 10:17:36;;;;;;;14.23;9.00;;;2.80;99.90;;;;;;5054096;28;20283;-77
2022/01/26 10:20:06;;;;;;;26.38;9.48;;;2.70;99.90;;;;;;5053146;28;20729;-77
2022/01/26 10:22:35;;;;;;;32.75;10.85;;;2.80;99.90;;;;;;5054545;28;20198;-78
2022/01/26 10:25:14;;;;;;;13.07;9.52;;;2.80;99.90;;;;;;5054124;28;20224;-79
2022/01/26 10:27:43;;;;;;;24.05;9.32;;;2.90;99.90;;;;;;5053580;28;20218;-78
2022/01/26 10:30:12;;;;;;;7.20;5.97;;;2.90;99.90;;;;;;5053860;28;20197;-77
2022/01/26 10:32:41;;;;;;;2.90;2.00;;;2.90;99.90;;;;;;5057360;28;20209;-77
2022/01/26 10:35:09;;;;;;;21.67;13.77;;;2.90;99.90;;;;;;5063029;28;20199;-77
2022/01/26 10:37:41;;;;;;;26.92;12.50;;;3.00;99.90;;;;;;5063869;28;20214;-78
2022/01/26 10:40:16;;;;;;;9.38;8.57;;;2.90;99.90;;;;;;5061959;28;20211;-77
2022/01/26 10:42:55;;;;;;;0.88;0.88;;;3.00;99.90;;;;;;5063310;28;20217;-78
2022/01/26 10:45:45;;;;;;;18.77;9.93;;;3.00;99.90;;;;;;5064880;28;20212;-78
2022/01/26 10:48:24;;;;;;;5.10;3.50;;;3.10;99.90;;;;;;5064281;28;20224;-77
2022/01/26 10:51:33;;;;;;;19.70;13.15;;;3.10;99.90;;;;;;5063694;28;20217;-78
2022/01/26 10:54:17;;;;;;;5.97;4.10;;;3.10;99.90;;;;;;5063283;28;20500;-78
2022/01/26 10:56:44;;;;;;;1.50;1.30;;;3.20;99.90;;;;;;5060551;28;20597;-78
2022/01/26 10:59:11;;;;;;;3.80;3.60;;;3.20;99.90;;;;;;5052936;28;20210;-77
2022/01/26 11:01:38;;;;;;;3.25;1.50;;;3.30;99.90;;;;;;5054683;28;20194;-78
2022/01/26 11:04:05;;;;;;;7.05;1.95;;;3.30;99.90;;;;;;5054420;28;20232;-78
2022/01/26 11:06:32;;;;;;;7.80;6.95;;;3.40;99.90;;;;;;5053055;28;20222;-78
2022/01/26 11:09:12;;;;;;;2.38;2.25;;;3.50;99.90;;;;;;5053367;28;20281;-77
2022/01/26 11:11:40;;;;;;;2.15;2.05;;;3.50;99.90;;;;;;5053344;28;20221;-77
2022/01/26 11:14:21;;;;;;;5.93;5.43;;;3.50;99.90;;;;;;5052060;28;20206;-76
2022/01/26 11:16:53;;;;;;;0.50;0.40;;;3.60;99.90;;;;;;5055404;28;20228;-78
2022/01/26 11:19:21;;;;;;;1.33;1.23;;;3.60;99.90;;;;;;5056964;28;20198;-77
2022/01/26 11:21:48;;;;;;;5.28;4.90;;;3.70;99.90;;;;;;5057133;28;20195;-78
2022/01/26 11:24:19;;;;;;;5.65;5.05;;;3.70;99.90;;;;;;5056871;28;20556;-78
2022/01/26 11:26:48;;;;;;;25.17;8.40;;;3.80;99.90;;;;;;5055443;28;20221;-77
2022/01/26 11:29:24;;;;;;;8.38;6.82;;;3.70;99.90;;;;;;5054563;28;20281;-78
2022/01/26 11:32:04;;;;;;;0.80;0.80;;;3.70;99.90;;;;;;5055530;28;20638;-77
2022/01/26 11:34:32;;;;;;;2.25;2.15;;;3.80;99.90;;;;;;5054745;28;20278;-77
2022/01/26 11:37:00;;;;;;;14.48;5.78;;;3.80;99.90;;;;;;5056019;28;20859;-77
2022/01/26 11:45:11;;;;;;;40.53;9.80;;;3.80;99.90;;;;;;5056978;28;20241;-77
2022/01/26 11:47:40;;;;;;;0.85;0.85;;;3.70;99.90;;;;;;5056731;28;20569;-78
2022/01/26 11:50:14;;;;;;;0.50;0.40;;;3.70;99.90;;;;;;5057897;28;20285;-76
2022/01/26 11:52:44;;;;;;;3.88;1.60;;;3.70;99.90;;;;;;5061880;28;20179;-77
2022/01/26 11:55:29;;;;;;;28.08;14.63;;;3.80;99.90;;;;;;5063425;28;20205;-76
2022/01/26 11:58:11;;;;;;;5.95;5.55;;;3.80;99.90;;;;;;5058735;28;20214;-79
2022/01/26 12:00:44;;;;;;;16.60;3.85;;;3.70;99.90;;;;;;5055207;28;20206;-78
2022/01/26 12:03:28;;;;;;;7.97;7.10;;;3.70;99.90;;;;;;5055767;28;20195;-76
2022/01/26 12:05:58;;;;;;;5.93;1.95;;;3.60;99.90;;;;;;5054645;28;20304;-77
2022/01/26 12:08:30;;;;;;;10.60;6.55;;;3.60;99.90;;;;;;5054703;28;20687;-77
2022/01/26 12:10:58;;;;;;;24.92;4.85;;;3.60;99.90;;;;;;5055894;28;20687;-78
2022/01/26 12:13:27;;;;;;;13.50;11.30;;;3.60;99.90;;;;;;5056731;28;20198;-76
2022/01/26 12:15:56;;;;;;;2.15;1.40;;;3.50;99.90;;;;;;5055878;28;20209;-77
2022/01/26 12:18:31;;;;;;;8.45;7.68;;;3.50;99.90;;;;;;5055239;28;20195;-76
2022/01/26 12:32:33;;;;;;;2.40;2.15;;;3.40;99.90;;;;;;5055432;28;20700;-76
2022/01/26 12:35:12;;;;;;;6.78;6.07;;;3.30;99.90;;;;;;5055724;28;20199;-76
2022/01/26 12:37:50;;;;;;;12.00;4.38;;;3.30;99.90;;;;;;5055553;28;20656;-77
2022/01/26 12:43:12;;;;;;;1.17;1.13;;;3.30;99.90;;;;;;5054226;28;20185;-78
2022/01/26 12:45:39;;;;;;;5.38;5.07;;;3.30;99.90;;;;;;5055377;28;20214;-76
2022/01/26 12:48:09;;;;;;;0.50;0.40;;;3.30;99.90;;;;;;5054819;28;20268;-76
2022/01/26 12:50:38;;;;;;;2.03;1.92;;;3.40;99.90;;;;;;5054239;28;20198;-76
2022/01/26 12:53:05;;;;;;;3.08;2.90;;;3.40;99.90;;;;;;5054430;28;20202;-76
2022/01/26 12:55:35;;;;;;;11.63;5.20;;;3.50;99.90;;;;;;5055857;28;20534;-77
2022/01/26 12:58:02;;;;;;;3.72;3.03;;;3.60;99.90;;;;;;5054507;28;20215;-77
2022/01/26 13:00:45;;;;;;;13.55;4.72;;;3.60;99.90;;;;;;5054702;28;20206;-76
2022/01/26 13:03:16;;;;;;;5.20;3.47;;;3.50;99.90;;;;;;5054026;28;20313;-76
2022/01/26 13:05:43;;;;;;;1.83;1.52;;;3.50;99.90;;;;;;5054313;28;20218;-76
2022/01/26 13:08:11;;;;;;;16.13;6.95;;;3.50;99.90;;;;;;5054178;28;20215;-76
2022/01/26 13:10:39;;;;;;;16.60;4.65;;;3.50;99.90;;;;;;5053996;28;20294;-78
2022/01/26 13:13:15;;;;;;;2.35;1.73;;;3.40;99.90;;;;;;5054748;28;20195;-77
2022/01/26 13:15:50;;;;;;;14.65;6.55;;;3.40;99.90;;;;;;5054289;28;20276;-76
2022/01/26 13:18:46;;;;;;;15.07;5.18;;;3.40;99.90;;;;;;5054000;28;20280;-77
2022/01/26 13:21:40;;;;;;;20.65;6.47;;;3.30;99.90;;;;;;5053914;28;20190;-77
2022/01/26 13:24:27;;;;;;;7.50;6.63;;;3.40;99.90;;;;;;5054528;28;20189;-78
2022/01/26 13:27:02;;;;;;;4.78;3.00;;;3.40;99.90;;;;;;5055030;28;20703;-77
2022/01/26 13:29:41;;;;;;;6.70;5.03;;;3.40;99.90;;;;;;5053030;28;20710;-76
2022/01/26 13:32:35;;;;;;;1.33;1.23;;;3.40;99.90;;;;;;5053548;28;20320;-76
2022/01/26 13:38:03;;;;;;;6.53;5.60;;;3.40;99.90;;;;;;5039765;28;20680;-77
2022/01/26 13:40:45;;;;;;;6.20;5.60;;;3.40;99.90;;;;;;5052380;28;20206;-76
2022/01/26 13:52:03;;;;;;;5.97;5.43;;;3.40;99.90;;;;;;5053036;28;20567;-77
2022/01/26 13:54:50;;;;;;;2.90;2.25;;;3.40;99.90;;;;;;5052830;28;20198;-76
2022/01/26 13:57:42;;;;;;;13.95;5.63;;;3.40;99.90;;;;;;5053514;28;20619;-76
2022/01/26 14:00:12;;;;;;;5.70;2.03;;;3.50;99.90;;;;;;5052771;28;20206;-76
2022/01/26 14:02:39;;;;;;;26.38;11.30;;;3.50;99.90;;;;;;5053281;28;20598;-76
2022/01/26 14:05:09;;;;;;;8.15;7.53;;;3.60;99.90;;;;;;5052869;28;20206;-76
2022/01/26 14:07:36;;;;;;;12.40;7.60;;;3.60;99.90;;;;;;5052949;28;20229;-76
2022/01/26 14:10:03;;;;;;;5.80;5.00;;;3.60;99.90;;;;;;5052526;28;20540;-76
2022/01/26 14:12:35;;;;;;;23.88;6.55;;;3.60;99.90;;;;;;5052419;28;20202;-76
2022/01/26 14:15:06;;;;;;;0.73;0.60;;;3.50;99.90;;;;;;5053533;28;20599;-77
2022/01/26 14:17:41;;;;;;;4.40;2.28;;;3.50;99.90;;;;;;5053103;28;20599;-77
2022/01/26 14:20:17;;;;;;;22.88;9.75;;;3.50;99.90;;;;;;5052704;28;20182;-77
2022/01/26 14:25:32;;;;;;;0.65;0.65;;;3.50;99.90;;;;;;5049252;28;20191;-78
2022/01/26 14:28:04;;;;;;;4.95;3.55;;;3.50;99.90;;;;;;5052692;28;20211;-77
2022/01/26 14:30:38;;;;;;;8.48;3.05;;;3.50;99.90;;;;;;5052897;28;20211;-78
2022/01/26 14:33:18;;;;;;;5.70;2.83;;;3.50;99.90;;;;;;5052717;28;20182;-76
2022/01/26 14:36:05;;;;;;;7.93;3.63;;;3.50;99.90;;;;;;5052202;28;20248;-76
2022/01/26 15:09:54;;;;;;;17.85;9.90;;;3.40;99.90;;;;;;5070787;28;20232;-79
2022/01/26 15:32:28;;;;;;;4.65;2.55;;;3.20;99.90;;;;;;5070546;28;20236;-77
2022/01/26 15:40:20;;;;;;;8.63;4.60;;;3.20;99.90;;;;;;5069582;28;20520;-77
2022/01/26 15:43:08;;;;;;;12.48;6.95;;;3.30;99.90;;;;;;5070048;28;20269;-77
2022/01/26 15:51:09;;;;;;;3.67;3.22;;;3.30;99.90;;;;;;5057523;28;20193;-77
2022/01/26 15:59:22;;;;;;;4.65;4.40;;;3.30;99.90;;;;;;5069057;28;20593;-77
2022/01/26 16:05:02;;;;;;;17.13;12.27;;;3.30;99.90;;;;;;5068231;28;20193;-77
2022/01/26 16:07:41;;;;;;;21.60;10.55;;;3.30;99.90;;;;;;5055051;28;20214;-77